Time,TemperatureF,DewpointF,PressureIn,WindDirection,WindDirectionDegrees,WindSpeedMPH,WindSpeedGustMPH,Humidity,HourlyPrecipIn,Conditions,Clouds,dailyrainin,SoftwareType,DateUTC
2013-10-16 00:05:00,25.8,22.0,30.09,ESE,123,0.0,0.0,86,0.00,,,0.00,weatherlink.com 1.10,2013-10-16 06:05:00,
2013-10-16 00:20:00,25.8,22.0,30.08,SE,127,0.0,0.0,86,0.00,,,0.00,weatherlink.com 1.10,2013-10-16 06:20:00,
2013-10-16 00:35:00,25.6,22.0,30.09,SE,137,0.0,5.0,86,0.00,,,0.00,weatherlink.com 1.10,2013-10-16 06:35:00,
2013-10-16 00:50:00,25.4,22.0,30.08,ESE,122,0.0,3.0,86,0.00,,,0.00,weatherlink.com 1.10,2013-10-16 06:50:00,
2013-10-16 01:06:00,25.3,22.0,30.08,ESE,111,0.0,0.0,86,0.00,,,0.00,weatherlink.com 1.10,2013-10-16 07:06:00,
2013-10-16 01:21:00,25.3,21.0,30.09,SE,134,0.0,0.0,85,0.00,,,0.00,weatherlink.com 1.10,2013-10-16 07:21:00,
2013-10-16 01:36:00,25.2,21.0,30.09,SE,134,0.0,0.0,85,0.00,,,0.00,weatherlink.com 1.10,2013-10-16 07:36:00,
2013-10-16 01:51:00,25.2,22.0,30.09,SE,134,0.0,0.0,86,0.00,,,0.00,weatherlink.com 1.10,2013-10-16 07:51:00,
2013-10-16 02:06:00,25.3,22.0,30.09,SE,134,0.0,0.0,86,0.00,,,0.00,weatherlink.com 1.10,2013-10-16 08:06:00,
2013-10-16 02:21:00,25.3,21.0,30.09,ESE,113,0.0,5.0,85,0.00,,,0.00,weatherlink.com 1.10,2013-10-16 08:21:00,
2013-10-16 02:36:00,25.1,21.0,30.09,ESE,117,0.0,2.0,84,0.00,,,0.00,weatherlink.com 1.10,2013-10-16 08:36:00,
2013-10-16 02:51:00,24.8,21.0,30.09,SE,138,0.0,0.0,84,0.00,,,0.00,weatherlink.com 1.10,2013-10-16 08:51:00,
2013-10-16 03:06:00,24.8,21.0,30.09,SE,140,0.0,1.0,85,0.00,,,0.00,weatherlink.com 1.10,2013-10-16 09:06:00,
2013-10-16 03:21:00,24.9,21.0,30.07,SSE,153,0.0,0.0,85,0.00,,,0.00,weatherlink.com 1.10,2013-10-16 09:21:00,
2013-10-16 03:36:00,25.0,21.0,30.06,SSE,151,0.0,4.0,86,0.00,,,0.00,weatherlink.com 1.10,2013-10-16 09:36:00,
2013-10-16 03:51:00,24.8,21.0,30.07,SSE,155,0.0,0.0,85,0.00,,,0.00,weatherlink.com 1.10,2013-10-16 09:51:00,
2013-10-16 04:06:00,24.8,21.0,30.07,SSE,157,0.0,0.0,86,0.00,,,0.00,weatherlink.com 1.10,2013-10-16 10:06:00,
2013-10-16 04:21:00,25.0,21.0,30.06,SSW,204,0.0,1.0,86,0.00,,,0.00,weatherlink.com 1.10,2013-10-16 10:21:00,
2013-10-16 04:37:00,24.9,22.0,30.07,South,191,0.0,5.0,87,0.00,,,0.00,weatherlink.com 1.10,2013-10-16 10:37:00,
2013-10-16 04:52:00,24.9,22.0,30.06,SSE,159,4.0,4.0,87,0.00,,,0.00,weatherlink.com 1.10,2013-10-16 10:52:00,
2013-10-16 05:06:00,24.8,22.0,30.06,SE,140,0.0,0.0,87,0.00,,,0.00,weatherlink.com 1.10,2013-10-16 11:06:00,
2013-10-16 05:21:00,24.8,22.0,30.05,SE,137,0.0,0.0,87,0.00,,,0.00,weatherlink.com 1.10,2013-10-16 11:21:00,
2013-10-16 05:36:00,24.4,21.0,30.05,ESE,115,0.0,0.0,87,0.00,,,0.00,weatherlink.com 1.10,2013-10-16 11:36:00,
2013-10-16 05:51:00,23.6,20.0,30.04,South,189,0.0,1.0,87,0.00,,,0.00,weatherlink.com 1.10,2013-10-16 11:51:00,
2013-10-16 06:07:00,23.2,20.0,30.04,South,179,0.0,1.0,87,0.00,,,0.00,weatherlink.com 1.10,2013-10-16 12:07:00,
2013-10-16 06:22:00,22.9,20.0,30.03,South,169,0.0,5.0,87,0.00,,,0.00,weatherlink.com 1.10,2013-10-16 12:22:00,
2013-10-16 06:37:00,22.5,19.0,30.04,WSW,244,0.0,2.0,86,0.00,,,0.00,weatherlink.com 1.10,2013-10-16 12:37:00,
2013-10-16 06:53:00,22.0,19.0,30.05,WSW,258,0.0,3.0,87,0.00,,,0.00,weatherlink.com 1.10,2013-10-16 12:53:00,
2013-10-16 07:07:00,21.8,19.0,30.05,WSW,252,0.0,4.0,87,0.00,,,0.00,weatherlink.com 1.10,2013-10-16 13:07:00,
2013-10-16 07:22:00,22.4,19.0,30.06,WSW,258,0.0,3.0,88,0.00,,,0.00,weatherlink.com 1.10,2013-10-16 13:22:00,
2013-10-16 07:37:00,23.2,20.0,30.06,WSW,258,0.0,3.0,87,0.00,,,0.00,weatherlink.com 1.10,2013-10-16 13:37:00,
2013-10-16 07:52:00,24.0,20.0,30.06,WSW,257,0.0,4.0,86,0.00,,,0.00,weatherlink.com 1.10,2013-10-16 13:52:00,
2013-10-16 08:07:00,24.8,21.0,30.06,WSW,257,0.0,4.0,85,0.00,,,0.00,weatherlink.com 1.10,2013-10-16 14:07:00,
2013-10-16 08:22:00,25.4,21.0,30.06,WSW,252,0.0,3.0,83,0.00,,,0.00,weatherlink.com 1.10,2013-10-16 14:22:00,
2013-10-16 08:37:00,26.2,21.0,30.07,WSW,252,0.0,0.0,81,0.00,,,0.00,weatherlink.com 1.10,2013-10-16 14:37:00,
2013-10-16 08:52:00,27.0,21.0,30.07,WSW,252,0.0,0.0,79,0.00,,,0.00,weatherlink.com 1.10,2013-10-16 14:52:00,
2013-10-16 09:07:00,27.9,21.0,30.07,WSW,252,0.0,0.0,76,0.00,,,0.00,weatherlink.com 1.10,2013-10-16 15:07:00,
2013-10-16 09:22:00,28.6,21.0,30.07,WSW,252,0.0,0.0,73,0.00,,,0.00,weatherlink.com 1.10,2013-10-16 15:22:00,
2013-10-16 09:38:00,31.0,22.0,30.06,WSW,252,0.0,0.0,68,0.00,,,0.00,weatherlink.com 1.10,2013-10-16 15:38:00,
2013-10-16 09:53:00,32.6,22.0,30.06,South,177,0.0,3.0,64,0.01,,,0.01,weatherlink.com 1.10,2013-10-16 15:53:00,
2013-10-16 10:07:00,33.5,21.0,30.06,NW,312,0.0,4.0,61,0.01,,,0.01,weatherlink.com 1.10,2013-10-16 16:07:00,
2013-10-16 10:22:00,34.6,22.0,30.05,West,279,1.0,8.0,61,0.01,,,0.01,weatherlink.com 1.10,2013-10-16 16:22:00,
2013-10-16 10:39:00,35.8,21.0,30.05,West,259,2.0,12.0,55,0.01,,,0.01,weatherlink.com 1.10,2013-10-16 16:39:00,
2013-10-16 10:52:00,36.1,20.0,30.04,WSW,248,4.0,12.0,52,0.00,,,0.01,weatherlink.com 1.10,2013-10-16 16:52:00,
2013-10-16 11:07:00,36.0,17.0,30.04,West,277,3.0,15.0,47,0.00,,,0.01,weatherlink.com 1.10,2013-10-16 17:07:00,
2013-10-16 11:22:00,37.0,17.0,30.04,NW,309,1.0,11.0,44,0.00,,,0.01,weatherlink.com 1.10,2013-10-16 17:22:00,
2013-10-16 11:38:00,37.8,16.0,30.03,WSW,249,0.0,12.0,41,0.00,,,0.01,weatherlink.com 1.10,2013-10-16 17:38:00,
2013-10-16 11:53:00,38.5,16.0,30.04,WNW,285,6.0,9.0,40,0.00,,,0.01,weatherlink.com 1.10,2013-10-16 17:53:00,
2013-10-16 12:08:00,38.5,15.0,30.03,WNW,298,0.0,11.0,38,0.00,,,0.01,weatherlink.com 1.10,2013-10-16 18:08:00,
2013-10-16 12:23:00,39.1,16.0,30.04,NNW,333,8.0,14.0,39,0.00,,,0.01,weatherlink.com 1.10,2013-10-16 18:23:00,
2013-10-16 12:38:00,39.4,16.0,30.03,NW,305,3.0,10.0,38,0.00,,,0.01,weatherlink.com 1.10,2013-10-16 18:38:00,
2013-10-16 12:53:00,37.8,15.0,30.03,WNW,282,2.0,10.0,40,0.00,,,0.01,weatherlink.com 1.10,2013-10-16 18:53:00,
2013-10-16 13:08:00,39.1,15.0,30.02,NW,319,5.0,7.0,37,0.00,,,0.01,weatherlink.com 1.10,2013-10-16 19:08:00,
2013-10-16 13:23:00,39.0,15.0,30.01,West,265,3.0,6.0,38,0.00,,,0.01,weatherlink.com 1.10,2013-10-16 19:23:00,
2013-10-16 13:38:00,38.6,14.0,30.01,NW,315,4.0,8.0,37,0.00,,,0.01,weatherlink.com 1.10,2013-10-16 19:38:00,
2013-10-16 13:53:00,39.5,14.0,30.00,West,279,3.0,9.0,36,0.00,,,0.01,weatherlink.com 1.10,2013-10-16 19:53:00,
2013-10-16 14:08:00,40.6,15.0,30.00,West,267,2.0,12.0,35,0.00,,,0.01,weatherlink.com 1.10,2013-10-16 20:08:00,
2013-10-16 14:24:00,42.0,15.0,30.00,NW,308,4.0,13.0,33,0.00,,,0.01,weatherlink.com 1.10,2013-10-16 20:24:00,
2013-10-16 14:38:00,41.8,15.0,30.00,West,266,3.0,12.0,34,0.00,,,0.01,weatherlink.com 1.10,2013-10-16 20:38:00,
2013-10-16 14:53:00,40.9,15.0,30.00,NW,315,3.0,17.0,35,0.00,,,0.01,weatherlink.com 1.10,2013-10-16 20:53:00,
2013-10-16 15:08:00,40.9,16.0,30.01,West,274,3.0,11.0,36,0.00,,,0.01,weatherlink.com 1.10,2013-10-16 21:08:00,
2013-10-16 15:23:00,41.0,15.0,30.01,WNW,285,0.0,14.0,35,0.00,,,0.01,weatherlink.com 1.10,2013-10-16 21:23:00,
2013-10-16 15:38:00,41.6,16.0,30.01,WSW,241,13.0,15.0,35,0.00,,,0.01,weatherlink.com 1.10,2013-10-16 21:38:00,
2013-10-16 15:53:00,41.8,16.0,30.01,NW,312,5.0,13.0,35,0.00,,,0.01,weatherlink.com 1.10,2013-10-16 21:53:00,
2013-10-16 16:08:00,40.6,16.0,30.01,NNW,329,0.0,12.0,37,0.00,,,0.01,weatherlink.com 1.10,2013-10-16 22:08:00,
2013-10-16 16:23:00,39.5,16.0,30.02,NNW,334,4.0,12.0,38,0.00,,,0.01,weatherlink.com 1.10,2013-10-16 22:23:00,
2013-10-16 16:38:00,38.8,15.0,30.02,West,276,9.0,10.0,38,0.00,,,0.01,weatherlink.com 1.10,2013-10-16 22:38:00,
2013-10-16 16:53:00,38.0,16.0,30.02,WSW,238,1.0,9.0,40,0.00,,,0.01,weatherlink.com 1.10,2013-10-16 22:53:00,
2013-10-16 17:08:00,36.9,15.0,30.02,WNW,296,0.0,8.0,41,0.00,,,0.01,weatherlink.com 1.10,2013-10-16 23:08:00,
2013-10-16 17:23:00,36.5,15.0,30.02,West,270,0.0,9.0,42,0.00,,,0.01,weatherlink.com 1.10,2013-10-16 23:23:00,
2013-10-16 17:38:00,36.0,15.0,30.03,WSW,258,1.0,10.0,43,0.00,,,0.01,weatherlink.com 1.10,2013-10-16 23:38:00,
2013-10-16 17:53:00,35.4,14.0,30.03,WNW,282,3.0,11.0,42,0.00,,,0.01,weatherlink.com 1.10,2013-10-16 23:53:00,
2013-10-16 18:09:00,34.8,14.0,30.03,West,259,2.0,8.0,43,0.00,,,0.01,weatherlink.com 1.10,2013-10-17 00:09:00,
2013-10-16 18:24:00,34.2,14.0,30.04,WSW,243,0.0,13.0,43,0.00,,,0.01,weatherlink.com 1.10,2013-10-17 00:24:00,
2013-10-16 18:39:00,33.2,13.0,30.04,WNW,286,0.0,0.0,44,0.00,,,0.01,weatherlink.com 1.10,2013-10-17 00:39:00,
2013-10-16 18:54:00,32.2,12.0,30.05,WSW,244,0.0,6.0,43,0.00,,,0.01,weatherlink.com 1.10,2013-10-17 00:54:00,
2013-10-16 19:09:00,32.0,12.0,30.05,WSW,241,0.0,6.0,43,0.00,,,0.01,weatherlink.com 1.10,2013-10-17 01:09:00,
2013-10-16 19:24:00,31.3,12.0,30.05,WSW,251,0.0,2.0,45,0.00,,,0.01,weatherlink.com 1.10,2013-10-17 01:24:00,
2013-10-16 19:39:00,30.9,12.0,30.05,WSW,250,0.0,6.0,45,0.00,,,0.01,weatherlink.com 1.10,2013-10-17 01:39:00,
2013-10-16 19:54:00,30.3,12.0,30.06,West,271,0.0,4.0,46,0.00,,,0.01,weatherlink.com 1.10,2013-10-17 01:54:00,
2013-10-16 20:09:00,30.1,11.0,30.06,WSW,237,0.0,6.0,46,0.00,,,0.01,weatherlink.com 1.10,2013-10-17 02:09:00,
2013-10-16 20:24:00,29.7,12.0,30.06,WSW,237,0.0,0.0,47,0.00,,,0.01,weatherlink.com 1.10,2013-10-17 02:24:00,
2013-10-16 20:39:00,28.8,11.0,30.07,WSW,237,0.0,0.0,48,0.00,,,0.01,weatherlink.com 1.10,2013-10-17 02:39:00,
2013-10-16 20:54:00,28.2,11.0,30.07,WSW,237,0.0,0.0,49,0.00,,,0.01,weatherlink.com 1.10,2013-10-17 02:54:00,
2013-10-16 21:09:00,28.1,11.0,30.07,WSW,237,0.0,0.0,49,0.00,,,0.01,weatherlink.com 1.10,2013-10-17 03:09:00,
2013-10-16 21:24:00,27.6,11.0,30.07,WSW,237,0.0,0.0,49,0.00,,,0.01,weatherlink.com 1.10,2013-10-17 03:24:00,
2013-10-16 21:39:00,27.3,11.0,30.08,WSW,237,0.0,0.0,50,0.00,,,0.01,weatherlink.com 1.10,2013-10-17 03:39:00,
2013-10-16 21:54:00,27.2,9.0,30.07,WSW,237,0.0,0.0,46,0.00,,,0.01,weatherlink.com 1.10,2013-10-17 03:54:00,
2013-10-16 22:09:00,27.6,8.0,30.07,WSW,237,0.0,2.0,43,0.00,,,0.01,weatherlink.com 1.10,2013-10-17 04:09:00,
2013-10-16 22:24:00,28.7,9.0,30.07,WSW,251,0.0,4.0,43,0.00,,,0.01,weatherlink.com 1.10,2013-10-17 04:24:00,
2013-10-16 22:39:00,29.1,10.0,30.07,West,266,0.0,0.0,44,0.00,,,0.01,weatherlink.com 1.10,2013-10-17 04:39:00,
2013-10-16 22:54:00,28.8,9.0,30.07,West,266,0.0,0.0,44,0.00,,,0.01,weatherlink.com 1.10,2013-10-17 04:54:00,
2013-10-16 23:09:00,28.4,9.0,30.06,WSW,250,2.0,3.0,44,0.00,,,0.01,weatherlink.com 1.10,2013-10-17 05:09:00,
2013-10-16 23:24:00,29.0,9.0,30.06,WSW,250,0.0,2.0,43,0.00,,,0.01,weatherlink.com 1.10,2013-10-17 05:24:00,
2013-10-16 23:39:00,29.2,10.0,30.05,WSW,252,0.0,4.0,45,0.00,,,0.01,weatherlink.com 1.10,2013-10-17 05:39:00,
2013-10-16 23:54:00,29.2,10.0,30.05,WSW,242,0.0,4.0,45,0.00,,,0.01,weatherlink.com 1.10,2013-10-17 05:54:00,